createdAt,value
2019-06-27T00:00:21.202Z,93.20
2019-06-27T00:02:48.579Z,93.30
2019-06-27T00:05:15.870Z,93.30
2019-06-27T00:07:43.092Z,93.20
2019-06-27T00:10:10.786Z,93.30
2019-06-27T00:12:37.978Z,93.30
2019-06-27T00:15:05.283Z,93.30
2019-06-27T00:17:32.499Z,93.40
2019-06-27T00:19:59.732Z,93.20
2019-06-27T00:22:27.037Z,93.20
2019-06-27T00:24:54.241Z,93.20
2019-06-27T00:27:21.485Z,93.30
2019-06-27T00:29:48.690Z,93.40
2019-06-27T00:32:15.888Z,93.40
2019-06-27T00:34:43.099Z,93.40
2019-06-27T00:37:10.313Z,93.60
2019-06-27T00:39:37.530Z,93.30
2019-06-27T00:42:04.714Z,93.40
2019-06-27T00:44:31.918Z,93.40
2019-06-27T00:46:59.116Z,93.40
2019-06-27T00:49:26.356Z,93.50
2019-06-27T00:51:53.567Z,93.40
2019-06-27T00:54:20.767Z,93.40
2019-06-27T00:56:47.959Z,93.60
2019-06-27T00:59:15.175Z,93.50
2019-06-27T01:01:42.402Z,93.50
2019-06-27T01:04:09.610Z,93.60
2019-06-27T01:06:36.819Z,93.60
2019-06-27T01:09:05.594Z,93.80
2019-06-27T01:11:32.782Z,93.90
2019-06-27T01:14:00.394Z,93.80
2019-06-27T01:16:27.622Z,93.90
2019-06-27T01:18:54.921Z,94.20
2019-06-27T01:21:22.244Z,94.30
2019-06-27T01:23:49.468Z,94.20
2019-06-27T01:26:16.665Z,94.10
2019-06-27T01:28:44.445Z,94.20
2019-06-27T01:31:11.651Z,94.30
2019-06-27T01:33:38.830Z,94.30
2019-06-27T01:36:06.055Z,94.40
2019-06-27T01:38:33.358Z,94.20
2019-06-27T01:41:00.558Z,94.40
2019-06-27T01:43:27.772Z,94.40
2019-06-27T01:45:56.771Z,94.70
2019-06-27T02:04:41.216Z,94.90
2019-06-27T02:07:08.418Z,95.00
2019-06-27T02:09:35.616Z,95.00
2019-06-27T02:12:02.933Z,95.00
2019-06-27T02:14:30.131Z,95.00
2019-06-27T02:16:57.362Z,95.00
2019-06-27T02:19:24.667Z,95.00
2019-06-27T02:21:52.046Z,95.00
2019-06-27T02:24:19.237Z,95.00
2019-06-27T02:26:46.468Z,95.00
2019-06-27T02:29:13.665Z,94.90
2019-06-27T02:31:40.875Z,94.90
2019-06-27T02:34:08.094Z,94.80
2019-06-27T02:36:35.285Z,94.80
2019-06-27T02:39:03.072Z,94.60
2019-06-27T02:41:30.582Z,94.70
2019-06-27T02:43:57.773Z,94.70
2019-06-27T02:46:24.992Z,94.60
2019-06-27T02:48:52.274Z,94.70
2019-06-27T02:51:19.474Z,94.50
2019-06-27T02:53:46.681Z,94.60
2019-06-27T02:56:13.899Z,94.80
2019-06-27T02:58:41.106Z,94.90
2019-06-27T03:01:08.306Z,94.80
2019-06-27T03:03:35.691Z,95.00
2019-06-27T03:06:03.000Z,95.00
2019-06-27T03:08:30.193Z,95.30
2019-06-27T03:10:57.603Z,95.10
2019-06-27T03:13:24.790Z,95.10
2019-06-27T03:15:52.206Z,95.10
2019-06-27T03:18:20.230Z,95.00
2019-06-27T03:20:47.438Z,95.00
2019-06-27T03:23:14.653Z,95.50
2019-06-27T03:25:41.967Z,95.40
2019-06-27T03:28:09.285Z,95.50
2019-06-27T03:30:36.497Z,95.60
2019-06-27T03:33:03.775Z,95.50
2019-06-27T03:35:31.101Z,95.40
2019-06-27T03:37:58.318Z,95.50
2019-06-27T03:40:25.561Z,95.50
2019-06-27T03:42:52.971Z,95.60
2019-06-27T03:45:20.638Z,95.60
2019-06-27T03:47:47.896Z,95.90
2019-06-27T03:50:15.219Z,95.80
2019-06-27T03:52:42.430Z,96.00
2019-06-27T03:55:09.626Z,96.00
2019-06-27T03:57:36.845Z,96.10
2019-06-27T04:00:04.610Z,95.90
2019-06-27T04:02:31.805Z,95.90
2019-06-27T04:04:59.002Z,96.10
2019-06-27T04:07:26.337Z,96.30
2019-06-27T04:09:53.743Z,96.20
2019-06-27T04:12:20.967Z,96.00
2019-06-27T04:14:48.199Z,95.90
2019-06-27T04:17:15.395Z,96.10
2019-06-27T04:19:43.534Z,96.00
2019-06-27T04:22:10.818Z,96.20
2019-06-27T04:24:38.057Z,96.30
2019-06-27T04:27:05.401Z,96.40
2019-06-27T04:29:34.594Z,96.50
2019-06-27T04:32:01.898Z,96.50
2019-06-27T04:34:29.236Z,96.50
2019-06-27T04:36:56.433Z,96.70
2019-06-27T04:39:23.654Z,96.80
2019-06-27T04:41:51.035Z,97.00
2019-06-27T04:44:18.348Z,97.20
2019-06-27T04:46:45.549Z,97.00
2019-06-27T04:49:13.853Z,96.90
2019-06-27T04:51:41.298Z,96.90
2019-06-27T04:54:08.646Z,96.90
2019-06-27T04:56:35.922Z,96.80
2019-06-27T04:59:03.132Z,96.90
2019-06-27T05:01:30.348Z,97.00
2019-06-27T05:03:57.691Z,97.20
2019-06-27T05:06:24.798Z,97.20
2019-06-27T05:08:52.005Z,97.20
2019-06-27T05:11:19.211Z,97.20
2019-06-27T05:13:46.553Z,97.40
2019-06-27T05:16:13.776Z,97.50
2019-06-27T05:18:41.089Z,97.20
2019-06-27T05:21:09.327Z,97.10
2019-06-27T05:23:36.542Z,96.90
2019-06-27T05:26:03.750Z,96.70
2019-06-27T05:28:30.939Z,96.90
2019-06-27T05:30:58.174Z,96.60
2019-06-27T05:33:25.366Z,96.30
2019-06-27T05:35:52.582Z,96.10
2019-06-27T05:38:19.787Z,95.90
2019-06-27T05:40:46.977Z,95.90
2019-06-27T05:43:14.180Z,95.80
2019-06-27T05:45:41.553Z,95.60
2019-06-27T05:48:08.869Z,95.80
2019-06-27T05:50:36.065Z,95.20
2019-06-27T05:53:03.283Z,95.10
2019-06-27T05:55:30.857Z,94.00
2019-06-27T05:57:58.045Z,94.00
2019-06-27T06:00:29.062Z,93.80
2019-06-27T06:02:54.340Z,93.70
2019-06-27T06:05:21.433Z,93.40
2019-06-27T06:07:48.636Z,92.90
2019-06-27T06:10:15.824Z,91.70
2019-06-27T06:12:43.016Z,91.80
2019-06-27T06:15:12.117Z,91.00
2019-06-27T06:17:39.304Z,90.90
2019-06-27T06:20:06.929Z,90.90
2019-06-27T06:22:35.027Z,91.10
2019-06-27T06:25:02.237Z,90.90
2019-06-27T06:27:29.541Z,90.60
2019-06-27T06:29:56.641Z,90.60
2019-06-27T06:32:23.848Z,90.30
2019-06-27T06:34:51.072Z,90.20
2019-06-27T06:37:18.349Z,89.10
2019-06-27T06:39:45.612Z,90.00
2019-06-27T06:42:12.945Z,89.30
2019-06-27T06:44:40.136Z,89.60
2019-06-27T06:47:07.361Z,88.90
2019-06-27T06:49:34.564Z,88.70
2019-06-27T06:52:01.778Z,88.50
2019-06-27T06:54:28.956Z,87.60
2019-06-27T06:56:56.152Z,88.90
2019-06-27T06:59:23.252Z,88.40
2019-06-27T07:01:50.477Z,89.80
2019-06-27T07:04:17.690Z,88.50
2019-06-27T07:06:44.904Z,89.40
2019-06-27T07:09:12.101Z,87.50
2019-06-27T07:11:39.296Z,89.50
2019-06-27T07:14:06.513Z,88.10
2019-06-27T07:16:33.741Z,87.40
2019-06-27T07:19:00.952Z,88.30
2019-06-27T07:21:28.288Z,88.30
2019-06-27T07:23:56.418Z,87.80
2019-06-27T07:26:23.613Z,86.40
2019-06-27T07:28:50.835Z,86.00
2019-06-27T07:31:18.555Z,86.60
2019-06-27T07:33:45.913Z,87.10
2019-06-27T07:36:13.119Z,85.80
2019-06-27T07:38:40.563Z,86.10
2019-06-27T07:41:07.970Z,87.00
2019-06-27T07:43:35.465Z,86.60
2019-06-27T07:46:03.002Z,85.70
2019-06-27T07:48:30.205Z,87.20
2019-06-27T07:50:57.436Z,86.20
2019-06-27T07:53:24.636Z,86.70
2019-06-27T07:55:51.949Z,86.70
2019-06-27T07:58:19.369Z,85.20
2019-06-27T08:00:46.549Z,84.80
2019-06-27T08:03:13.761Z,86.10
2019-06-27T08:05:40.962Z,86.00
2019-06-27T08:08:08.210Z,87.70
2019-06-27T08:10:35.515Z,86.20
2019-06-27T08:13:02.732Z,85.50
2019-06-27T08:15:29.942Z,85.80
2019-06-27T08:17:57.124Z,86.10
2019-06-27T08:20:24.314Z,85.50
2019-06-27T08:22:51.525Z,85.20
2019-06-27T08:25:20.173Z,85.60
2019-06-27T08:27:47.372Z,85.10
2019-06-27T08:30:14.765Z,85.90
2019-06-27T08:32:42.059Z,85.70
2019-06-27T08:35:09.473Z,87.20
2019-06-27T08:37:36.667Z,88.10
2019-06-27T08:40:04.633Z,86.60
2019-06-27T08:42:32.165Z,87.50
2019-06-27T08:44:59.454Z,85.80
2019-06-27T08:47:26.634Z,85.30
2019-06-27T08:49:53.934Z,84.40
2019-06-27T08:52:21.152Z,87.00
2019-06-27T08:54:48.508Z,86.50
2019-06-27T08:57:15.797Z,85.20
2019-06-27T08:59:43.380Z,86.60
2019-06-27T09:02:11.406Z,85.60
2019-06-27T09:04:38.604Z,86.10
2019-06-27T09:07:05.786Z,86.50
2019-06-27T09:09:33.065Z,84.80
2019-06-27T09:12:00.668Z,85.00
2019-06-27T09:14:27.944Z,84.50
2019-06-27T09:16:55.146Z,86.10
2019-06-27T09:19:22.357Z,84.60
2019-06-27T09:21:49.620Z,85.70
2019-06-27T09:24:16.821Z,86.10
2019-06-27T09:26:44.949Z,84.40
2019-06-27T09:29:12.625Z,85.10
2019-06-27T09:31:39.825Z,85.50
2019-06-27T09:34:07.016Z,87.90
2019-06-27T09:36:34.237Z,85.60
2019-06-27T09:39:01.440Z,85.40
2019-06-27T09:41:28.648Z,83.50
2019-06-27T09:43:55.977Z,84.30
2019-06-27T09:46:23.176Z,87.50
2019-06-27T09:48:50.408Z,84.60
2019-06-27T09:51:17.612Z,85.30
2019-06-27T09:53:44.838Z,85.50
2019-06-27T09:56:12.278Z,86.20
2019-06-27T09:58:39.576Z,85.90
2019-06-27T10:01:06.780Z,84.70
2019-06-27T10:03:33.999Z,86.80
2019-06-27T10:06:01.204Z,86.60
2019-06-27T10:08:29.301Z,84.60
2019-06-27T10:10:56.505Z,84.00
2019-06-27T10:13:23.692Z,84.70
2019-06-27T10:15:50.962Z,84.30
2019-06-27T10:18:18.385Z,85.30
2019-06-27T10:20:45.589Z,84.20
2019-06-27T10:23:12.807Z,85.10
2019-06-27T10:25:40.013Z,83.70
2019-06-27T10:28:07.225Z,83.80
2019-06-27T10:30:34.437Z,84.50
2019-06-27T10:33:01.640Z,85.40
2019-06-27T10:35:28.810Z,87.30
2019-06-27T10:37:56.005Z,84.20
2019-06-27T10:40:24.088Z,85.50
2019-06-27T10:42:51.321Z,83.90
2019-06-27T10:45:18.542Z,85.80
2019-06-27T10:47:45.764Z,84.50
2019-06-27T10:50:14.259Z,86.30
2019-06-27T10:52:41.645Z,86.40
2019-06-27T10:55:09.749Z,87.80
2019-06-27T10:57:37.090Z,87.70
2019-06-27T11:00:05.140Z,86.50
2019-06-27T11:02:32.352Z,86.40
2019-06-27T11:04:59.525Z,87.00
2019-06-27T11:07:26.725Z,87.40
2019-06-27T11:09:54.107Z,87.10
2019-06-27T11:12:21.521Z,87.40
2019-06-27T11:14:59.133Z,87.90
2019-06-27T11:17:19.501Z,87.80
2019-06-27T11:19:52.487Z,87.10
2019-06-27T11:22:15.821Z,87.30
2019-06-27T11:24:43.023Z,85.80
2019-06-27T11:27:10.344Z,86.80
2019-06-27T11:29:37.565Z,85.40
2019-06-27T11:32:04.789Z,87.20
2019-06-27T11:34:34.985Z,87.00
2019-06-27T11:37:00.976Z,86.60
2019-06-27T11:39:28.205Z,85.90
2019-06-27T11:41:55.440Z,85.70
2019-06-27T11:44:22.724Z,85.80
2019-06-27T11:46:50.150Z,84.80
2019-06-27T11:49:17.432Z,85.10
2019-06-27T11:51:44.628Z,85.00
2019-06-27T11:54:11.856Z,84.20
2019-06-27T11:56:39.039Z,84.80
2019-06-27T11:59:06.264Z,84.50
2019-06-27T12:01:33.465Z,83.40
2019-06-27T12:04:00.657Z,85.60
2019-06-27T12:06:27.842Z,84.10
2019-06-27T12:08:55.047Z,81.60
2019-06-27T12:11:22.233Z,84.60
2019-06-27T12:13:49.440Z,83.00
2019-06-27T12:16:16.640Z,83.80
2019-06-27T12:18:43.727Z,84.50
2019-06-27T12:21:10.914Z,82.20
2019-06-27T12:23:38.116Z,81.40
2019-06-27T12:26:05.331Z,83.40
2019-06-27T12:28:32.755Z,83.00
2019-06-27T12:31:00.104Z,82.90
2019-06-27T12:33:27.288Z,81.10
2019-06-27T12:35:54.518Z,81.10
2019-06-27T12:38:21.707Z,80.30
2019-06-27T12:40:48.905Z,80.60
2019-06-27T12:43:16.145Z,80.70
2019-06-27T12:45:43.345Z,81.20
2019-06-27T12:48:11.057Z,82.00
2019-06-27T12:50:38.245Z,82.80
2019-06-27T12:53:05.339Z,82.20
2019-06-27T12:55:32.565Z,81.10
2019-06-27T12:57:59.789Z,81.80
2019-06-27T13:00:27.095Z,79.10
2019-06-27T13:02:54.273Z,78.70
2019-06-27T13:05:21.496Z,78.10
2019-06-27T13:07:48.728Z,79.90
2019-06-27T13:10:16.236Z,81.60
2019-06-27T13:12:43.459Z,79.30
2019-06-27T13:15:10.957Z,77.50
2019-06-27T13:17:38.136Z,79.20
2019-06-27T13:20:07.122Z,78.30
2019-06-27T13:22:34.569Z,81.10
2019-06-27T13:25:01.916Z,79.00
2019-06-27T13:27:29.554Z,79.00
2019-06-27T13:29:56.778Z,78.10
2019-06-27T13:32:25.514Z,78.30
2019-06-27T13:34:53.061Z,78.30
2019-06-27T13:37:20.395Z,78.10
2019-06-27T13:39:48.253Z,78.30
2019-06-27T13:42:15.585Z,78.50
2019-06-27T13:44:42.849Z,75.00
2019-06-27T13:47:10.056Z,75.50
2019-06-27T13:49:37.282Z,78.70
2019-06-27T13:52:04.481Z,77.80
2019-06-27T13:54:31.671Z,76.10
2019-06-27T13:56:59.224Z,77.50
2019-06-27T13:59:26.401Z,76.40
2019-06-27T14:01:53.622Z,76.00
2019-06-27T14:04:24.196Z,74.70
2019-06-27T14:06:50.022Z,73.60
2019-06-27T14:09:23.572Z,74.90
2019-06-27T14:11:46.464Z,72.70
2019-06-27T14:14:13.673Z,71.90
2019-06-27T14:16:40.888Z,73.30
2019-06-27T14:19:08.284Z,72.90
2019-06-27T14:21:35.500Z,71.60
2019-06-27T14:24:02.865Z,73.50
2019-06-27T14:26:30.080Z,74.60
2019-06-27T14:28:57.464Z,70.10
2019-06-27T14:31:24.694Z,73.60
2019-06-27T14:33:52.009Z,71.90
2019-06-27T14:36:19.216Z,69.90
2019-06-27T14:38:46.416Z,68.60
2019-06-27T14:41:14.938Z,67.00
2019-06-27T14:43:42.321Z,70.20
2019-06-27T14:46:09.583Z,67.90
2019-06-27T14:48:36.985Z,67.70
2019-06-27T14:51:04.190Z,68.30
2019-06-27T14:53:31.381Z,67.60
2019-06-27T14:55:58.568Z,67.20
2019-06-27T14:58:25.658Z,68.40
2019-06-27T15:00:52.844Z,66.80
2019-06-27T15:03:20.045Z,68.10
2019-06-27T15:05:47.253Z,64.20
2019-06-27T15:08:14.456Z,63.30
2019-06-27T15:10:41.928Z,66.80
2019-06-27T15:13:09.135Z,66.80
2019-06-27T15:15:36.297Z,62.60
2019-06-27T15:18:03.805Z,62.90
2019-06-27T15:20:30.997Z,60.20
2019-06-27T15:22:58.192Z,62.40
2019-06-27T15:25:28.272Z,64.10
2019-06-27T15:27:54.480Z,61.80
2019-06-27T15:30:21.713Z,60.80
2019-06-27T15:32:49.101Z,60.00
2019-06-27T15:35:16.294Z,59.30
2019-06-27T15:37:43.494Z,60.00
2019-06-27T15:40:11.005Z,61.30
2019-06-27T15:42:38.213Z,62.40
2019-06-27T15:45:05.956Z,60.10
2019-06-27T15:47:33.197Z,59.50
2019-06-27T15:50:00.389Z,57.30
2019-06-27T15:52:27.577Z,58.20
2019-06-27T15:54:54.772Z,57.10
2019-06-27T15:57:21.970Z,57.20
2019-06-27T15:59:49.190Z,55.00
2019-06-27T16:02:16.456Z,56.00
2019-06-27T16:04:43.648Z,56.40
2019-06-27T16:07:10.899Z,58.40
2019-06-27T16:09:38.102Z,58.20
2019-06-27T16:12:05.313Z,56.20
2019-06-27T16:14:32.717Z,54.20
2019-06-27T16:16:59.916Z,55.30
2019-06-27T16:19:27.116Z,55.10
2019-06-27T16:21:54.344Z,53.00
2019-06-27T16:24:21.552Z,55.10
2019-06-27T16:26:48.740Z,55.90
2019-06-27T16:29:16.262Z,55.80
2019-06-27T16:31:43.468Z,55.20
2019-06-27T16:34:10.676Z,55.10
2019-06-27T16:36:37.890Z,53.80
2019-06-27T16:39:05.521Z,56.50
2019-06-27T16:41:32.779Z,55.80
2019-06-27T16:43:59.965Z,54.50
2019-06-27T16:46:27.157Z,54.50
2019-06-27T16:48:54.359Z,53.20
2019-06-27T16:51:21.562Z,53.80
2019-06-27T16:53:48.818Z,53.60
2019-06-27T16:56:16.031Z,52.40
2019-06-27T16:58:48.269Z,52.70
2019-06-27T17:01:15.592Z,54.70
2019-06-27T17:03:42.785Z,51.90
2019-06-27T17:06:09.984Z,53.50
2019-06-27T17:08:37.202Z,54.60
2019-06-27T17:11:04.400Z,53.10
2019-06-27T17:13:31.573Z,53.80
2019-06-27T17:15:58.776Z,53.70
2019-06-27T17:18:26.306Z,52.00
2019-06-27T17:20:53.508Z,51.60
2019-06-27T17:23:20.721Z,53.30
2019-06-27T17:25:47.925Z,53.00
2019-06-27T17:28:15.109Z,53.20
2019-06-27T17:30:42.669Z,48.30
2019-06-27T17:33:09.934Z,50.60
2019-06-27T17:35:37.286Z,52.80
2019-06-27T17:38:04.550Z,53.90
2019-06-27T17:40:31.864Z,54.70
2019-06-27T17:42:59.065Z,55.30
2019-06-27T17:45:26.575Z,55.50
2019-06-27T17:47:54.343Z,55.60
2019-06-27T17:50:21.520Z,56.60
2019-06-27T17:52:48.745Z,57.00
2019-06-27T17:55:15.924Z,57.30
2019-06-27T17:57:43.113Z,57.80
2019-06-27T18:00:10.505Z,57.80
2019-06-27T18:02:37.715Z,58.10
2019-06-27T18:05:05.218Z,57.60
2019-06-27T18:07:32.418Z,58.20
2019-06-27T18:09:59.609Z,58.40
2019-06-27T18:12:26.796Z,59.20
2019-06-27T18:14:53.988Z,59.30
2019-06-27T18:17:32.935Z,59.20
2019-06-27T18:19:50.204Z,58.80
2019-06-27T18:22:17.411Z,57.40
2019-06-27T18:24:45.579Z,55.00
2019-06-27T18:27:12.749Z,55.00
2019-06-27T18:29:39.940Z,55.30
2019-06-27T18:32:07.136Z,54.80
2019-06-27T18:34:34.483Z,55.00
2019-06-27T18:37:01.870Z,55.70
2019-06-27T18:39:29.069Z,56.30
2019-06-27T18:41:56.324Z,56.80
2019-06-27T18:44:23.561Z,57.20
2019-06-27T18:46:50.833Z,57.60
2019-06-27T18:49:18.028Z,57.80
2019-06-27T18:51:45.338Z,57.90
2019-06-27T18:54:12.565Z,58.80
2019-06-27T18:56:39.758Z,58.90
2019-06-27T18:59:06.994Z,59.40
2019-06-27T19:01:34.193Z,59.10
2019-06-27T19:04:01.694Z,59.60
2019-06-27T19:06:28.932Z,61.60
2019-06-27T19:08:56.129Z,60.80
2019-06-27T19:11:23.354Z,59.30
2019-06-27T19:13:50.799Z,60.40
2019-06-27T19:16:18.102Z,60.70
2019-06-27T19:18:51.652Z,61.00
2019-06-27T19:21:24.378Z,60.60
2019-06-27T19:24:11.237Z,60.90
2019-06-27T19:26:38.542Z,60.60
2019-06-27T19:29:05.737Z,60.60
2019-06-27T19:31:33.033Z,60.60
2019-06-27T19:34:00.341Z,60.70
2019-06-27T19:36:27.553Z,60.10
2019-06-27T19:38:54.780Z,60.80
2019-06-27T19:41:21.984Z,60.10
2019-06-27T19:43:49.164Z,60.20
2019-06-27T19:46:16.394Z,60.60
2019-06-27T19:48:45.740Z,60.90
2019-06-27T19:51:12.720Z,59.70
2019-06-27T19:53:39.932Z,60.10
2019-06-27T19:56:07.132Z,60.20
2019-06-27T19:58:34.418Z,60.70
2019-06-27T20:01:01.764Z,60.90
2019-06-27T20:03:28.984Z,61.20
2019-06-27T20:05:56.205Z,60.80
2019-06-27T20:08:23.424Z,61.70
2019-06-27T20:10:50.618Z,60.80
2019-06-27T20:13:17.914Z,61.40
2019-06-27T20:15:45.205Z,60.20
2019-06-27T20:18:12.401Z,60.70
2019-06-27T20:20:39.914Z,62.90
2019-06-27T20:23:07.116Z,63.20
2019-06-27T20:25:34.349Z,61.80
2019-06-27T20:28:01.558Z,62.50
2019-06-27T20:30:28.846Z,62.40
2019-06-27T20:32:56.060Z,61.80
2019-06-27T20:35:23.301Z,63.20
2019-06-27T20:37:50.526Z,65.30
2019-06-27T20:40:18.737Z,65.50
2019-06-27T20:42:45.921Z,66.20
2019-06-27T20:45:13.425Z,68.20
2019-06-27T20:47:40.725Z,70.70
2019-06-27T20:50:08.300Z,72.20
2019-06-27T20:52:35.547Z,72.10
2019-06-27T20:55:03.076Z,72.40
2019-06-27T20:57:30.261Z,73.40
2019-06-27T20:59:57.457Z,73.40
2019-06-27T21:02:24.672Z,72.80
2019-06-27T21:04:51.916Z,71.90
2019-06-27T21:07:19.206Z,73.40
2019-06-27T21:09:46.444Z,73.60
2019-06-27T21:12:13.681Z,75.00
2019-06-27T21:14:40.874Z,74.60
2019-06-27T21:17:08.105Z,73.90
2019-06-27T21:19:35.288Z,74.40
2019-06-27T21:22:08.641Z,75.30
2019-06-27T21:24:35.853Z,74.10
2019-06-27T21:27:03.147Z,73.90
2019-06-27T21:29:30.333Z,74.10
2019-06-27T21:31:57.532Z,74.20
2019-06-27T21:34:24.729Z,73.70
2019-06-27T21:36:52.116Z,73.00
2019-06-27T21:39:19.317Z,72.60
2019-06-27T21:41:46.514Z,72.50
2019-06-27T21:44:14.286Z,72.00
2019-06-27T21:46:41.510Z,71.00
2019-06-27T21:49:11.325Z,69.80
2019-06-27T21:51:37.934Z,70.10
2019-06-27T22:04:05.240Z,70.20
2019-06-27T22:06:32.541Z,70.10
2019-06-27T22:08:59.749Z,69.90
2019-06-27T22:11:26.944Z,69.90
2019-06-27T22:13:54.116Z,69.10
2019-06-27T22:16:21.324Z,70.00
2019-06-27T22:18:48.944Z,70.00
2019-06-27T22:21:16.156Z,70.40
2019-06-27T22:23:43.364Z,70.50
2019-06-27T22:26:10.564Z,75.00
2019-06-27T22:28:37.741Z,75.40
2019-06-27T22:31:04.944Z,75.10
2019-06-27T22:33:32.150Z,75.00
2019-06-27T22:35:59.351Z,74.20
2019-06-27T22:38:45.361Z,75.40
2019-06-27T22:41:31.124Z,74.90
2019-06-27T22:44:16.373Z,74.60
2019-06-27T22:47:01.888Z,75.80
2019-06-27T22:49:28.844Z,74.70
2019-06-27T22:52:34.400Z,74.10
2019-06-27T22:55:02.837Z,73.80
2019-06-27T22:57:30.013Z,74.50
2019-06-27T22:59:57.108Z,74.30
2019-06-27T23:02:24.309Z,74.30
2019-06-27T23:04:51.515Z,73.80
2019-06-27T23:07:18.724Z,74.00
2019-06-27T23:09:56.418Z,74.90
2019-06-27T23:12:15.010Z,75.20
2019-06-27T23:14:42.200Z,74.70
2019-06-27T23:17:09.400Z,73.80
2019-06-27T23:19:36.648Z,73.30
2019-06-27T23:22:03.964Z,72.70
2019-06-27T23:24:31.165Z,72.50
2019-06-27T23:26:58.361Z,71.80
2019-06-27T23:29:25.670Z,74.90
2019-06-27T23:31:52.964Z,76.90
2019-06-27T23:34:20.159Z,77.50
2019-06-27T23:36:47.365Z,77.50
2019-06-27T23:39:14.553Z,77.90
2019-06-27T23:41:41.746Z,78.00
2019-06-27T23:44:09.156Z,78.70
2019-06-27T23:46:42.120Z,78.20
2019-06-27T23:49:09.860Z,78.30
2019-06-27T23:51:37.057Z,78.70
2019-06-27T23:54:04.289Z,78.70
2019-06-27T23:56:31.481Z,78.30
2019-06-27T23:58:58.770Z,79.00
